Latest Weather Observations for Williamtown

IDN60901

Issued at 11:31 am EST Friday 14 May 2021 (issued every 10 minutes, with the page automatically refreshed every 10 minutes)

About weather observations | Map of Sydney area stations | Latest observations for Sydney area | Other Formats
Station Details ID: 061078 Name: WILLIAMTOWN RAAF Lat: -32.79 Lon: 151.84 Height: 7.5 m
Data from the previous 72 hours. | See also: Recent months at Williamtown
Date/Time
EST
Temp
°C
App
Temp
°C
Dew
Point
°C
Rel
Hum
%
Delta-T
°C
Wind Press
QNH
hPa
Press
MSL
hPa
Rain since
9am
mm
Dir  Spd
km/h
Gust
km/h
Spd
kts
Gust
kts
14/11:00am 18.3 11.0 7.4 49 5.5 WNW 35 44 19 24 1012.4 1012.3 0.0
14/10:30am 18.2 12.0 7.9 51 5.3 W 30 41 16 22 1012.8 1012.7 0.0
14/10:00am 17.5 12.2 8.4 55 4.7 WNW 26 37 14 20 1012.9 1012.8 0.0
14/09:30am 16.7 10.3 8.4 58 4.2 WNW 32 43 17 23 1012.7 1012.6 0.0
14/09:00am 15.8 9.3 8.3 61 3.8 WNW 32 39 17 21 1012.4 1012.3 0.0
14/08:30am 15.0 8.3 8.3 64 3.4 WNW 33 43 18 23 1012.3 1012.2 0.0
14/08:00am 14.3 7.9 8.5 68 2.9 WNW 32 41 17 22 1012.2 1012.1 0.0
14/07:30am 13.4 8.1 8.5 72 2.4 WNW 26 33 14 18 1011.9 1011.8 0.0
14/07:00am 13.0 8.1 8.3 73 2.3 W 24 32 13 17 1011.7 1011.6 0.0
14/06:30am 13.3 7.2 8.4 72 2.4 WNW 30 39 16 21 1011.4 1011.3 0.0
14/06:00am 13.3 8.4 8.6 73 2.4 W 24 37 13 20 1011.1 1011.0 0.0
14/05:30am 12.9 7.6 8.6 75 2.1 WNW 26 35 14 19 1011.0 1010.9 0.0
14/05:00am 13.6 8.0 8.7 72 2.5 WNW 28 39 15 21 1010.7 1010.6 0.0
14/04:30am 13.3 8.1 8.8 74 2.3 WNW 26 30 14 16 1010.7 1010.6 0.0
14/04:00am 13.6 8.0 8.7 72 2.5 WNW 28 35 15 19 1010.6 1010.5 0.0
14/03:30am 13.6 8.5 9.1 74 2.3 WNW 26 32 14 17 1010.4 1010.3 0.0
14/03:00am 12.6 8.8 9.2 80 1.7 WNW 19 24 10 13 1010.7 1010.6 0.0
14/02:30am 12.4 9.4 9.2 81 1.6 W 15 19 8 10 1010.7 1010.6 0.0
14/02:00am 12.5 9.4 8.8 78 1.9 W 15 17 8 9 1010.8 1010.7 0.0
14/01:30am 13.2 9.8 9.3 77 2.0 W 17 19 9 10 1011.2 1011.1 0.0
14/01:00am 13.5 11.7 9.4 76 2.1 WSW 9 15 5 8 1011.4 1011.3 0.0
14/12:30am 13.8 10.9 9.6 76 2.2 W 15 20 8 11 1011.5 1011.4 0.0
14/12:00am 13.6 11.1 9.6 77 2.0 W 13 19 7 10 1011.4 1011.3 0.0
 
Date/Time
EST
Temp
°C
App
Temp
°C
Dew
Point
°C
Rel
Hum
%
Delta-T
°C
Wind Press
QNH
hPa
Press
MSL
hPa
Rain since
9am
mm
Dir  Spd
km/h
Gust
km/h
Spd
kts
Gust
kts
13/11:30pm 14.6 10.8 9.8 73 2.5 W 20 28 11 15 1011.2 1011.1 0.0
13/11:00pm 15.4 10.8 9.7 69 3.0 W 24 32 13 17 1011.0 1010.9 0.0
13/10:30pm 15.5 11.0 10.1 70 2.8 WNW 24 30 13 16 1010.9 1010.8 0.0
13/10:00pm 15.4 10.9 10.0 70 2.8 WNW 24 30 13 16 1011.0 1010.9 0.0
13/09:30pm 16.0 11.5 9.9 67 3.2 WNW 24 30 13 16 1010.9 1010.8 0.0
13/09:00pm 15.1 12.1 10.5 74 2.4 WNW 17 20 9 11 1010.8 1010.7 0.0
13/08:30pm 15.7 12.7 10.5 71 2.7 NW 17 19 9 10 1010.6 1010.5 0.0
13/08:00pm 15.3 12.9 11.3 77 2.1 NW 15 19 8 10 1010.7 1010.6 0.0
13/07:30pm 15.2 12.6 12.0 81 1.7 NW 17 19 9 10 1010.7 1010.6 0.0
13/07:00pm 15.3 14.3 12.4 83 1.6 WNW 9 9 5 5 1010.7 1010.6 0.0
13/06:30pm 16.4 16.0 12.4 77 2.2 NNW 6 7 3 4 1010.6 1010.5 0.0
13/06:00pm 17.7 16.4 12.6 72 2.8 N 11 13 6 7 1010.4 1010.3 0.0
13/05:30pm 18.0 16.7 12.5 70 3.1 NW 11 13 6 7 1010.1 1010.0 0.0
13/05:00pm 19.0 17.0 12.7 67 3.5 WNW 15 17 8 9 1010.0 1009.9 0.0
13/04:30pm 20.6 18.3 13.1 62 4.3 WNW 17 22 9 12 1009.9 1009.8 0.0
13/04:00pm 21.4 18.3 13.3 60 4.7 WNW 22 28 12 15 1009.7 1009.6 0.0
13/03:30pm 21.8 18.6 13.2 58 4.9 WNW 22 32 12 17 1009.7 1009.6 0.0
13/03:00pm 22.2 19.6 13.8 59 4.9 WNW 20 28 11 15 1009.7 1009.6 0.0
13/02:30pm 22.1 20.0 13.7 59 4.9 WNW 17 19 9 10 1009.8 1009.7 0.0
13/02:00pm 22.2 20.3 14.3 61 4.6 WNW 17 26 9 14 1010.1 1010.0 0.0
13/01:30pm 21.1 18.2 13.0 60 4.6 WNW 20 26 11 14 1010.5 1010.4 0.0
13/01:00pm 21.3 20.1 14.0 63 4.2 W 13 19 7 10 1011.0 1010.9 0.0
13/12:30pm 21.3 19.5 14.5 65 4.0 W 17 24 9 13 1011.4 1011.3 0.0
13/12:00pm 20.5 18.2 14.2 67 3.7 WNW 19 26 10 14 1011.8 1011.7 0.0
13/11:30am 20.6 19.0 14.9 70 3.3 W 17 28 9 15 1012.5 1012.4 0.0
13/11:00am 20.1 18.5 14.9 72 3.0 W 17 22 9 12 1012.9 1012.8 0.0
13/10:30am 19.6 18.6 15.7 78 2.3 WNW 15 22 8 12 1013.3 1013.2 0.0
13/10:00am 18.5 17.5 15.6 83 1.7 WNW 15 19 8 10 1013.7 1013.6 0.0
13/09:30am 17.0 15.6 15.5 91 0.9 WNW 17 20 9 11 1014.0 1013.9 0.0
13/09:00am 16.1 14.9 15.1 94 0.6 WNW 15 19 8 10 1014.0 1013.9 0.0
13/08:30am 15.9 14.9 15.6 98 0.2 WNW 15 19 8 10 1014.2 1014.1 0.0
13/08:00am 15.0 13.8 15.0 100 0.0 NW 15 17 8 9 1014.2 1014.1 0.0
13/07:30am 14.7 13.7 14.7 100 0.0 NW 13 19 7 10 1014.1 1014.0 0.0
13/07:00am 14.7 13.7 14.7 100 0.0 W 13 19 7 10 1014.1 1014.0 0.0
13/06:30am 14.3 13.2 14.3 100 0.0 W 13 17 7 9 1014.0 1013.9 0.0
13/06:24am 14.3 13.2 14.3 100 0.0 W 13 17 7 9 1014.0 1013.9 0.0
13/06:00am 14.2 13.1 14.2 100 0.0 W 13 17 7 9 1014.0 1013.9 0.0
13/05:30am 14.3 12.4 14.3 100 0.0 WNW 17 20 9 11 1013.8 1013.7 0.0
13/05:00am 13.5 11.8 13.5 100 0.0 WNW 15 17 8 9 1013.6 1013.5 0.0
13/04:30am 13.2 13.1 13.2 100 0.0 NW 6 7 3 4 1013.6 1013.5 0.0
13/04:00am 13.4 13.1 13.4 100 0.0 NW 7 7 4 4 1013.7 1013.6 0.0
13/03:30am 13.5 12.1 13.5 100 0.0 WNW 13 13 7 7 1013.8 1013.7 0.0
13/03:00am 13.9 13.4 13.9 100 0.0 NW 9 11 5 6 1014.1 1014.0 0.0
13/02:30am 14.2 13.5 14.2 100 0.0 WNW 11 13 6 7 1014.5 1014.4 0.0
13/02:00am 13.9 13.0 13.7 99 0.1 WNW 11 11 6 6 1014.7 1014.6 0.0
13/01:30am 15.1 16.4 15.1 100 0.0 NE 2 7 1 4 1015.0 1014.9 0.0
13/01:00am 15.2 14.1 15.2 100 0.0 W 15 22 8 12 1014.8 1014.7 0.0
13/12:30am 15.6 15.0 15.6 100 0.0 WNW 13 17 7 9 1015.1 1015.0 0.0
13/12:00am 16.0 16.7 16.0 100 0.0 W 7 9 4 5 1015.6 1015.5 0.0
 
Date/Time
EST
Temp
°C
App
Temp
°C
Dew
Point
°C
Rel
Hum
%
Delta-T
°C
Wind Press
QNH
hPa
Press
MSL
hPa
Rain since
9am
mm
Dir  Spd
km/h
Gust
km/h
Spd
kts
Gust
kts
12/11:30pm 15.8 15.6 15.8 100 0.0 W 11 17 6 9 1015.7 1015.6 0.0
12/11:00pm 15.9 16.2 15.9 100 0.0 W 9 11 5 6 1016.2 1016.1 0.0
12/10:30pm 15.8 16.6 15.8 100 0.0 W 6 11 3 6 1016.2 1016.1 0.0
12/10:00pm 16.1 18.1 16.1 100 0.0 CALM 0 0 0 0 1016.5 1016.4 0.0
12/09:30pm 16.2 16.6 16.2 100 0.0 W 9 11 5 6 1016.8 1016.7 0.0
12/09:00pm 16.2 17.4 15.9 98 0.2 WNW 4 7 2 4 1016.9 1016.8 0.0
12/08:30pm 16.3 17.4 15.7 96 0.4 WNW 4 7 2 4 1016.8 1016.7 0.0
12/08:00pm 17.4 16.3 16.4 94 0.6 SSW 17 22 9 12 1016.6 1016.5 0.0
12/07:30pm 17.8 17.6 17.5 98 0.2 SSW 15 20 8 11 1017.0 1016.9 0.0
12/07:00pm 16.3 17.0 16.0 98 0.2 NW 7 9 4 5 1017.1 1017.0 0.0
12/06:30pm 16.5 18.1 15.9 96 0.4 W 2 9 1 5 1016.8 1016.7 0.0
12/06:00pm 17.2 18.9 16.1 93 0.6 S 2 6 1 3 1016.4 1016.3 0.0
12/05:30pm 18.1 19.5 16.4 90 1.0 SSE 4 9 2 5 1016.6 1016.5 0.0
12/05:00pm 18.4 18.9 16.6 89 1.1 S 9 11 5 6 1016.3 1016.2 0.0
12/04:30pm 18.9 19.0 16.5 86 1.4 S 11 13 6 7 1016.2 1016.1 0.0
12/04:00pm 19.8 19.3 17.0 84 1.7 S 15 19 8 10 1016.4 1016.3 0.0
12/03:30pm 20.1 18.7 17.1 83 1.8 S 20 28 11 15 1016.6 1016.5 0.0
12/03:00pm 20.4 19.2 16.2 77 2.5 S 17 22 9 12 1016.6 1016.5 0.0
12/02:30pm 20.1 18.9 16.1 78 2.4 SSW 17 22 9 12 1016.8 1016.7 0.0
12/02:00pm 20.0 18.5 16.4 80 2.2 S 19 26 10 14 1016.7 1016.6 0.0
12/01:30pm 20.0 20.7 16.2 79 2.3 SSW 7 13 4 7 1017.1 1017.0 0.0
12/01:00pm 19.7 20.5 16.3 81 2.0 S 7 11 4 6 1017.6 1017.5 0.0
12/12:30pm 18.9 19.3 15.4 80 2.1 WNW 7 9 4 5 1018.2 1018.1 0.0
12/12:00pm 18.4 18.7 15.1 81 1.9 W 7 9 4 5 1018.9 1018.8 0.0
12/11:30am 17.9 18.1 14.6 81 1.9 W 7 11 4 6 1019.3 1019.2 0.0
12/11:00am 17.7 17.0 14.2 80 2.0 WNW 11 17 6 9 1019.3 1019.2 0.0
12/10:30am 16.9 15.6 13.6 81 1.9 WNW 13 19 7 10 1019.6 1019.5 0.0
12/10:00am 16.6 14.4 13.3 81 1.8 WNW 17 20 9 11 1019.6 1019.5 0.0
12/09:30am 15.8 13.4 12.7 82 1.7 WNW 17 20 9 11 1019.6 1019.5 0.0
12/09:00am 14.7 11.7 11.8 83 1.6 WNW 19 22 10 12 1019.7 1019.6 7.2
12/08:30am 14.1 11.8 11.6 85 1.3 NW 15 19 8 10 1019.9 1019.8 7.2
12/08:00am 13.5 10.6 11.0 85 1.3 WNW 17 22 9 12 1019.7 1019.6 7.2
12/07:30am 13.0 10.5 10.9 87 1.1 WNW 15 20 8 11 1019.6 1019.5 7.2
12/07:00am 12.8 11.0 10.7 87 1.1 NW 11 13 6 7 1019.2 1019.1 7.2
12/06:30am 12.7 10.1 10.8 88 1.0 WNW 15 17 8 9 1018.7 1018.6 7.2
12/06:00am 12.8 10.6 10.9 88 1.0 WNW 13 17 7 9 1018.5 1018.4 7.2
12/05:56am 12.6 10.4 10.8 89 0.9 NW 13 17 7 9 1018.5 1018.4 7.2
12/05:30am 13.1 10.2 11.0 87 1.1 WNW 17 19 9 10 1018.6 1018.5 7.2
12/05:09am 12.9 10.3 10.6 86 1.2 WNW 15 19 8 10 1018.5 1018.4 7.2
12/05:00am 12.8 9.8 10.5 86 1.2 WNW 17 20 9 11 1018.3 1018.2 7.2
12/04:30am 12.8 9.8 10.7 87 1.1 WNW 17 20 9 11 1018.0 1017.9 7.2
12/04:00am 13.2 10.7 11.1 87 1.1 NW 15 19 8 10 1018.1 1018.0 7.2
12/03:30am 13.3 10.8 11.0 86 1.2 W 15 20 8 11 1018.0 1017.9 7.2
12/03:00am 13.4 11.0 11.5 88 1.0 WNW 15 19 8 10 1018.1 1018.0 7.2
12/02:30am 13.6 10.9 11.7 88 1.0 WNW 17 20 9 11 1018.2 1018.1 7.2
12/02:00am 13.8 11.1 11.8 88 1.1 WNW 17 24 9 13 1018.0 1017.9 7.2
12/01:30am 14.2 12.3 12.9 92 0.7 WNW 15 19 8 10 1018.0 1017.9 7.2
12/01:00am 14.2 13.4 14.0 99 0.1 NW 11 11 6 6 1017.9 1017.8 7.2
12/12:30am 14.1 13.3 13.9 99 0.1 WNW 11 11 6 6 1018.2 1018.1 7.2
12/12:00am 14.5 14.5 14.3 99 0.1 NW 7 9 4 5 1018.3 1018.2 7.2
 
Date/Time
EST
Temp
°C
App
Temp
°C
Dew
Point
°C
Rel
Hum
%
Delta-T
°C
Wind Press
QNH
hPa
Press
MSL
hPa
Rain since
9am
mm
Dir  Spd
km/h
Gust
km/h
Spd
kts
Gust
kts
11/11:30pm 14.7 14.5 14.7 100 0.0 WNW 9 11 5 6 1018.5 1018.4 7.2
11/11:00pm 15.0 14.5 15.0 100 0.0 NW 11 11 6 6 1018.6 1018.5 7.2
11/10:30pm 15.2 14.7 15.0 99 0.1 NW 11 13 6 7 1018.6 1018.5 7.2
11/10:00pm 15.5 16.1 15.3 99 0.1 WSW 6 9 3 5 1018.4 1018.3 7.2
11/09:30pm 15.6 15.7 15.4 99 0.1 WSW 9 17 5 9 1018.5 1018.4 7.2
11/09:00pm 15.7 16.1 15.4 98 0.2 NNE 7 11 4 6 1018.0 1017.9 7.2
11/08:30pm 15.7 16.1 15.4 98 0.2 N 7 9 4 5 1017.7 1017.6 7.2
11/08:00pm 15.8 15.9 15.5 98 0.2 NNW 9 11 5 6 1017.4 1017.3 7.2
11/07:30pm 15.7 16.2 15.1 96 0.3 NNE 6 7 3 4 1017.2 1017.1 7.2
11/07:00pm 15.6 15.6 15.1 97 0.3 N 9 13 5 7 1016.8 1016.7 7.2
11/06:30pm 15.9 16.0 15.4 97 0.3 NW 9 11 5 6 1016.3 1016.2 7.2
11/06:00pm 16.3 16.4 15.5 95 0.5 NNE 9 13 5 7 1016.0 1015.9 7.2
11/05:30pm 16.5 16.8 15.9 96 0.4 NNE 9 11 5 6 1015.6 1015.5 7.2
11/05:00pm 16.8 17.0 15.8 94 0.6 NE 9 13 5 7 1015.4 1015.3 7.2
11/04:30pm 18.0 18.6 15.8 87 1.3 N 7 9 4 5 1015.2 1015.1 7.2
11/04:00pm 18.9 19.5 15.8 82 1.8 W 7 9 4 5 1014.6 1014.5 7.2
11/03:30pm 17.2 18.0 15.9 92 0.8 SSW 6 13 3 7 1014.7 1014.6 7.2
11/03:18pm 16.6 15.9 15.5 93 0.6 SSW 13 17 7 9 1014.7 1014.6 7.2
11/03:05pm 16.1 13.9 14.8 92 0.7 W 20 35 11 19 1014.7 1014.6 7.2
11/03:00pm 16.3 12.3 15.2 93 0.6 W 30 52 16 28 1015.2 1015.1 6.4
11/02:50pm 16.1 12.4 13.8 86 1.3 WSW 26 57 14 31 1014.7 1014.6 3.6
11/02:47pm 19.4 17.8 15.9 80 2.1 SW 19 33 10 18 1014.5 1014.4 0.0
11/02:30pm 21.0 21.5 14.9 68 3.6 WSW 6 7 3 4 1013.8 1013.7 0.0
11/02:00pm 21.5 21.0 14.9 66 3.9 WSW 11 13 6 7 1014.0 1013.9 0.0
11/01:30pm 21.9 20.8 15.3 66 3.9 W 15 19 8 10 1014.3 1014.2 0.0
11/01:00pm 21.8 20.1 14.7 64 4.2 NNW 17 20 9 11 1014.5 1014.4 0.0
11/12:30pm 20.7 20.6 16.1 75 2.8 W 11 17 6 9 1014.7 1014.6 0.0
11/12:00pm 19.2 18.7 15.9 81 2.0 WNW 13 17 7 9 1015.1 1015.0 0.0

Latest Capital City Observations: Canberra | Sydney | Melbourne | Brisbane | Adelaide | Perth | Hobart | Darwin

Other formats

Comma delimited format used in spreadsheet applications
http://www.bom.gov.au/fwo/IDN60901/IDN60901.94776.axf

JavaScript Object Notation format (JSON) in row-major order
http://www.bom.gov.au/fwo/IDN60901/IDN60901.94776.json

Data quality

Most of these data are generated automatically and are frequently updated. Quality checks on data are not normally performed. It is possible for incorrect values to appear. Refer to information at About Latest Weather Observations and please check the disclaimer before using these data.